createdAt,value
2023-05-14T00:02:35.808Z,48.3
2023-05-14T00:07:36.443Z,48.2
2023-05-14T00:12:37.028Z,48.6
2023-05-14T00:17:37.676Z,48.5
2023-05-14T00:22:38.171Z,48.4
2023-05-14T00:27:38.713Z,48.6
2023-05-14T00:32:39.552Z,48.6
2023-05-14T00:37:39.976Z,48.8
2023-05-14T00:42:43.177Z,48.6
2023-05-14T00:47:43.310Z,48.7
2023-05-14T00:52:43.954Z,48.6
2023-05-14T00:57:44.467Z,48.5
2023-05-14T01:02:45.208Z,48.7
2023-05-14T01:07:45.731Z,48.5
2023-05-14T01:12:46.458Z,48.7
2023-05-14T01:17:46.933Z,48.6
2023-05-14T01:22:50.043Z,48.7
2023-05-14T01:27:50.158Z,48.7
2023-05-14T01:32:53.525Z,48.5
2023-05-14T01:37:56.192Z,48.3
2023-05-14T01:42:56.392Z,48.4
2023-05-14T01:47:56.774Z,48
2023-05-14T01:52:57.220Z,47.9
2023-05-14T01:57:57.579Z,48.1
2023-05-14T02:03:01.005Z,47.9
2023-05-14T02:08:03.710Z,48
2023-05-14T02:13:06.491Z,47.9
2023-05-14T02:18:06.602Z,48
2023-05-14T02:23:09.959Z,48
2023-05-14T02:28:10.630Z,48
2023-05-14T02:33:11.943Z,48.1
2023-05-14T02:38:12.352Z,47.6
2023-05-14T02:43:12.876Z,47.8
2023-05-14T02:48:13.562Z,47.8
2023-05-14T02:53:14.279Z,48
2023-05-14T02:58:15.875Z,47.9
2023-05-14T03:03:16.336Z,48.1
2023-05-14T03:08:17.241Z,48.2
2023-05-14T03:13:17.950Z,48.1
2023-05-14T03:18:18.524Z,48.3
2023-05-14T03:23:19.065Z,47.9
2023-05-14T03:28:22.520Z,48.1
2023-05-14T03:33:23.656Z,48.1
2023-05-14T03:38:23.975Z,48.2
2023-05-14T03:43:33.407Z,48.3
2023-05-14T03:48:32.480Z,48.4
2023-05-14T03:53:35.480Z,48.3
2023-05-14T03:58:38.305Z,48.4
2023-05-14T04:03:38.443Z,48.1
2023-05-14T04:08:41.654Z,48
2023-05-14T04:13:44.531Z,48.2
2023-05-14T04:18:44.942Z,48.4
2023-05-14T04:23:45.480Z,48.4
2023-05-14T04:28:48.742Z,48.3
2023-05-14T04:33:51.624Z,48.1
2023-05-14T04:38:54.385Z,48.3
2023-05-14T04:43:57.402Z,48
2023-05-14T04:48:57.558Z,48.4
2023-05-14T04:53:58.276Z,48.1
2023-05-14T04:58:58.927Z,48.2
2023-05-14T05:04:02.304Z,48.2
2023-05-14T05:08:14.827Z,48.2
2023-05-14T05:13:15.432Z,48
2023-05-14T05:18:16.161Z,48.2
2023-05-14T05:23:21.121Z,48.2
2023-05-14T05:28:21.008Z,48.1
2023-05-14T05:33:21.500Z,48.1
2023-05-14T05:38:21.856Z,48.5
2023-05-14T05:43:22.728Z,47.9
2023-05-14T05:48:23.211Z,48.3
2023-05-14T05:53:26.451Z,48.6
2023-05-14T05:58:29.281Z,48.3
2023-05-14T06:03:32.078Z,48.5
2023-05-14T06:08:34.886Z,48.6
2023-05-14T06:13:35.032Z,48.7
2023-05-14T06:18:35.641Z,48.9
2023-05-14T06:23:36.242Z,48.8
2023-05-14T06:28:36.695Z,49
2023-05-14T06:33:40.076Z,48.9
2023-05-14T06:38:40.267Z,48.9
2023-05-14T06:43:40.870Z,48.8
2023-05-14T06:48:41.335Z,48.8
2023-05-14T06:53:44.716Z,48.8
2023-05-14T06:58:44.819Z,48.5
2023-05-14T07:03:48.264Z,48.7
2023-05-14T07:08:48.483Z,49
2023-05-14T07:13:59.390Z,49
2023-05-14T07:18:59.615Z,49
2023-05-14T07:23:59.704Z,49.2
2023-05-14T07:29:00.328Z,49.2
2023-05-14T07:34:01.114Z,49
2023-05-14T07:39:01.410Z,48.8
2023-05-14T07:44:02.255Z,49.2
2023-05-14T07:49:05.703Z,49
2023-05-14T07:54:05.892Z,49.1
2023-05-14T07:59:06.661Z,49.2
2023-05-14T08:04:07.479Z,49.2
2023-05-14T08:09:08.079Z,48.8
2023-05-14T08:14:09.561Z,48.9
2023-05-14T08:19:12.926Z,48.8
2023-05-14T08:24:22.735Z,48.8
2023-05-14T08:29:26.083Z,48.7
2023-05-14T08:34:28.626Z,48.7
2023-05-14T08:39:31.622Z,48.5
2023-05-14T08:44:31.804Z,48.5
2023-05-14T08:49:35.156Z,48.6
2023-05-14T08:54:35.122Z,48.7
2023-05-14T08:59:35.939Z,48.6
2023-05-14T09:04:36.470Z,48.7
2023-05-14T09:09:37.072Z,48.7
2023-05-14T09:14:37.625Z,48.7
2023-05-14T09:19:38.176Z,48.7
2023-05-14T09:24:38.599Z,48.9
2023-05-14T09:29:39.082Z,48.9
2023-05-14T09:34:39.764Z,48.8
2023-05-14T09:39:39.765Z,49.2
2023-05-14T09:44:40.335Z,49
2023-05-14T09:49:42.930Z,49.2
2023-05-14T09:54:43.040Z,49.1
2023-05-14T09:59:46.159Z,49.1
2023-05-14T10:04:46.419Z,49.3
2023-05-14T10:09:49.541Z,49
2023-05-14T10:14:49.862Z,49.3
2023-05-14T10:19:50.407Z,49.4
2023-05-14T10:24:53.600Z,49.1
2023-05-14T10:29:53.790Z,49.2
2023-05-14T10:34:54.597Z,49.5
2023-05-14T10:39:57.763Z,49.3
2023-05-14T10:45:00.595Z,49.5
2023-05-14T10:50:00.975Z,49.4
2023-05-14T10:55:04.220Z,49.5
2023-05-14T11:00:04.274Z,49.3
2023-05-14T11:05:04.850Z,49.4
2023-05-14T11:10:05.396Z,49.4
2023-05-14T11:15:08.893Z,49.2
2023-05-14T11:20:11.757Z,49.2
2023-05-14T11:25:15.114Z,49.5
2023-05-14T11:30:14.807Z,49.7
2023-05-14T11:35:15.234Z,49.6
2023-05-14T11:40:15.751Z,49.5
2023-05-14T11:45:16.461Z,49.6
2023-05-14T11:50:19.765Z,49.7
2023-05-14T11:55:22.637Z,49.6
2023-05-14T12:00:25.666Z,49.7
2023-05-14T12:05:28.369Z,49.6
2023-05-14T12:10:28.553Z,49.9
2023-05-14T12:15:29.184Z,50
2023-05-14T12:20:29.718Z,49.9
2023-05-14T12:25:30.419Z,49.9
2023-05-14T12:30:33.742Z,49.8
2023-05-14T12:35:48.766Z,49.8
2023-05-14T12:40:49.834Z,49.6
2023-05-14T12:45:49.905Z,49.8
2023-05-14T12:50:53.241Z,49.6
2023-05-14T12:55:53.453Z,49.7
2023-05-14T13:00:53.959Z,49.5
2023-05-14T13:05:54.571Z,49.7
2023-05-14T13:10:55.194Z,49.5
2023-05-14T13:15:58.337Z,49.4
2023-05-14T13:21:02.243Z,49.4
2023-05-14T13:26:02.358Z,49.5
2023-05-14T13:31:02.893Z,49.6
2023-05-14T13:36:03.713Z,49.6
2023-05-14T13:41:04.130Z,49.6
2023-05-14T13:46:04.612Z,49.7
2023-05-14T13:51:07.928Z,49.6
2023-05-14T13:56:08.017Z,49.6
2023-05-14T14:01:08.249Z,49.5
2023-05-14T14:06:08.889Z,49.1
2023-05-14T14:11:18.157Z,49.2
2023-05-14T14:16:18.234Z,49.4
2023-05-14T14:21:18.655Z,49.5
2023-05-14T14:26:19.275Z,49.9
2023-05-14T14:31:20.016Z,49.6
2023-05-14T14:36:21.202Z,49.6
2023-05-14T14:41:24.280Z,49.7
2023-05-14T14:46:27.255Z,49.7
2023-05-14T14:51:27.301Z,49.6
2023-05-14T14:56:28.029Z,49.6
2023-05-14T15:01:31.311Z,49.6
2023-05-14T15:06:31.392Z,49.8
2023-05-14T15:11:36.716Z,49.7
2023-05-14T15:16:36.481Z,49.7
2023-05-14T15:21:39.466Z,49.9
2023-05-14T15:26:43.138Z,49.9
2023-05-14T15:31:43.167Z,49.9
2023-05-14T15:36:44.527Z,49.8
2023-05-14T15:41:45.020Z,49.7
2023-05-14T15:46:49.306Z,50.1
2023-05-14T15:51:49.315Z,50
2023-05-14T15:56:49.870Z,50
2023-05-14T16:01:50.237Z,50.1
2023-05-14T16:06:50.765Z,50.2
2023-05-14T16:11:51.288Z,50.2
2023-05-14T16:16:51.902Z,50.3
2023-05-14T16:21:52.682Z,50.2
2023-05-14T16:26:53.371Z,50.4
2023-05-14T16:31:54.192Z,50
2023-05-14T16:36:54.788Z,50
2023-05-14T16:41:55.236Z,50.2
2023-05-14T16:46:56.914Z,50.3
2023-05-14T16:51:57.529Z,50.3
2023-05-14T16:56:58.070Z,50.4
2023-05-14T17:01:58.864Z,50.5
2023-05-14T17:06:59.333Z,50.5
2023-05-14T17:12:01.511Z,50.6
2023-05-14T17:17:01.700Z,50.6
2023-05-14T17:22:04.856Z,50.7
2023-05-14T17:27:05.055Z,50.6
2023-05-14T17:32:05.587Z,50.6
2023-05-14T17:37:06.093Z,50.6
2023-05-14T17:42:06.509Z,50.7
2023-05-14T17:47:07.266Z,50.7
2023-05-14T17:52:07.623Z,50.8
2023-05-14T17:57:10.901Z,50.8
2023-05-14T18:02:13.456Z,50.8
2023-05-14T18:07:13.488Z,50.8
2023-05-14T18:12:14.174Z,50.8
2023-05-14T18:17:17.359Z,50.9
2023-05-14T18:22:19.976Z,50.8
2023-05-14T18:27:20.033Z,50.9
2023-05-14T18:32:20.482Z,50.8
2023-05-14T18:37:20.942Z,50.9
2023-05-14T18:42:24.130Z,50.9
2023-05-14T18:47:24.449Z,50.9
2023-05-14T18:52:24.996Z,50.9
2023-05-14T18:57:25.738Z,51
2023-05-14T19:02:29.075Z,51
2023-05-14T19:07:29.018Z,51
2023-05-14T19:12:29.962Z,50.9
2023-05-14T19:17:30.384Z,51
2023-05-14T19:22:31.003Z,51
2023-05-14T19:27:31.731Z,51
2023-05-14T19:32:32.218Z,51
2023-05-14T19:37:35.398Z,51
2023-05-14T19:42:38.238Z,51.1
2023-05-14T19:47:38.454Z,51
2023-05-14T19:52:38.781Z,51
2023-05-14T19:57:39.428Z,51
2023-05-14T20:02:42.792Z,51.1
2023-05-14T20:07:43.040Z,51.1
2023-05-14T20:12:43.707Z,51.1
2023-05-14T20:17:47.020Z,51.1
2023-05-14T20:22:47.224Z,51.1
2023-05-14T20:27:48.898Z,51.1
2023-05-14T20:32:49.081Z,51.2
2023-05-14T20:37:49.738Z,51.1
2023-05-14T20:42:50.476Z,51.1
2023-05-14T20:47:50.975Z,51
2023-05-14T20:52:51.686Z,50.9
2023-05-14T20:57:54.999Z,51
2023-05-14T21:02:55.216Z,51
2023-05-14T21:07:55.461Z,51.1
2023-05-14T21:12:55.816Z,51.1
2023-05-14T21:17:59.261Z,51.2
2023-05-14T21:23:02.113Z,51.1
2023-05-14T21:28:02.948Z,51.2
2023-05-14T21:33:03.567Z,51.2
2023-05-14T21:38:04.218Z,51.2
2023-05-14T21:43:04.828Z,51.3
2023-05-14T21:48:06.092Z,51.3
2023-05-14T21:53:06.740Z,51.3
2023-05-14T21:58:07.414Z,51.2
2023-05-14T22:03:12.979Z,51.2
2023-05-14T22:08:15.454Z,51.3
2023-05-14T22:13:15.752Z,51.2
2023-05-14T22:18:16.239Z,51.3
2023-05-14T22:23:16.907Z,51.4
2023-05-14T22:28:17.692Z,51.3
2023-05-14T22:33:18.155Z,51.4
2023-05-14T22:38:18.889Z,51.5
2023-05-14T22:43:19.641Z,51.4
2023-05-14T22:48:22.766Z,51.5
2023-05-14T22:53:24.357Z,51.5
2023-05-14T22:58:26.074Z,51.4
2023-05-14T23:03:26.386Z,51.4
2023-05-14T23:08:27.164Z,51.4
2023-05-14T23:13:30.336Z,51.5
2023-05-14T23:18:30.795Z,51.6
2023-05-14T23:23:31.045Z,51.5
2023-05-14T23:28:31.668Z,51.4
2023-05-14T23:33:34.918Z,51.4
2023-05-14T23:38:34.796Z,51.6
2023-05-14T23:43:37.870Z,51.6
2023-05-14T23:48:40.750Z,51.4
2023-05-14T23:53:40.812Z,51.7
2023-05-14T23:58:41.304Z,51.6
